Falcon, North Carolina
Current Conditions -  °F | °C
As of 1:15 AM on Monday 26 Jan 2015 (Local Time) from KHRJ Reporting Station
Clear Clear  
Wind Chill: 38°   Ceiling: Unl
Heat Index: 41°   Visibility: 10mi
Dew Point: 35°   Wind: 5mph
Humidity: 79%   Direction: 150°SSE
Pressure: 29.76"   Gusts: NA
Location:  35.19°N, 78.65°W
Report Text: KHRJ 260615Z AUTO 15004KT 10SM CLR 05/02 A2976 RMK AO2 T00490016
Loading
Personal Weather Stations






























Interactive Weather Map New forecast layout! Learn more

10-Day Weather Forecast

Advertisements
Track Severe Weather on mobile